createdAt,value
2019-05-09T00:01:35.691Z,1.70
2019-05-09T00:04:05.581Z,3.07
2019-05-09T00:06:35.344Z,1.10
2019-05-09T00:09:06.059Z,1.53
2019-05-09T00:11:35.793Z,1.37
2019-05-09T00:14:05.605Z,1.60
2019-05-09T00:16:35.328Z,1.03
2019-05-09T00:19:05.131Z,0.80
2019-05-09T00:21:40.005Z,0.80
2019-05-09T00:24:09.736Z,0.90
2019-05-09T00:26:39.480Z,1.13
2019-05-09T00:29:14.427Z,0.80
2019-05-09T00:32:15.091Z,1.17
2019-05-09T00:35:05.792Z,1.03
2019-05-09T00:38:01.265Z,1.27
2019-05-09T00:40:31.041Z,1.77
2019-05-09T00:43:00.784Z,0.70
2019-05-09T00:45:55.129Z,2.97
2019-05-09T00:48:29.372Z,1.03
2019-05-09T00:50:59.101Z,1.20
2019-05-09T00:53:28.933Z,0.80
2019-05-09T00:55:58.625Z,1.27
2019-05-09T00:58:28.429Z,0.80
2019-05-09T01:00:58.250Z,0.80
2019-05-09T01:03:28.063Z,0.80
2019-05-09T01:05:57.943Z,0.67
2019-05-09T01:08:27.681Z,0.83
2019-05-09T01:11:10.998Z,1.63
2019-05-09T01:13:28.740Z,0.87
2019-05-09T01:15:58.422Z,0.87
2019-05-09T01:18:28.162Z,1.57
2019-05-09T01:20:57.853Z,0.90
2019-05-09T01:23:27.561Z,1.00
2019-05-09T01:25:57.293Z,0.70
2019-05-09T01:28:27.106Z,0.80
2019-05-09T01:30:56.812Z,1.03
2019-05-09T01:33:57.723Z,1.20
2019-05-09T01:36:46.291Z,0.70
2019-05-09T01:39:16.327Z,2.20
2019-05-09T01:41:46.140Z,0.70
2019-05-09T01:44:15.948Z,0.93
2019-05-09T01:46:45.880Z,0.60
2019-05-09T01:49:15.673Z,0.60
2019-05-09T01:51:45.388Z,1.57
2019-05-09T01:54:17.087Z,0.50
2019-05-09T01:56:46.960Z,0.80
2019-05-09T01:59:16.588Z,0.73
2019-05-09T02:01:46.296Z,0.67
2019-05-09T02:04:15.996Z,0.90
2019-05-09T02:06:45.919Z,1.23
2019-05-09T02:09:15.834Z,0.60
2019-05-09T02:11:46.413Z,0.67
2019-05-09T02:14:19.552Z,0.60
2019-05-09T02:17:07.212Z,0.63
2019-05-09T02:19:43.816Z,0.90
2019-05-09T02:22:30.531Z,0.57
2019-05-09T02:25:00.257Z,0.83
2019-05-09T02:27:30.072Z,1.73
2019-05-09T02:29:59.793Z,0.50
2019-05-09T02:32:29.491Z,0.43
2019-05-09T02:34:59.690Z,0.70
2019-05-09T02:37:29.493Z,0.50
2019-05-09T02:39:59.422Z,0.53
2019-05-09T02:42:29.169Z,0.90
2019-05-09T02:44:59.568Z,0.70
2019-05-09T02:47:29.489Z,0.43
2019-05-09T02:49:59.316Z,0.97
2019-05-09T02:52:29.149Z,0.80
2019-05-09T02:54:58.926Z,0.90
2019-05-09T02:57:29.556Z,1.53
2019-05-09T03:00:28.816Z,1.17
2019-05-09T03:03:13.013Z,0.40
2019-05-09T03:05:42.836Z,0.87
2019-05-09T03:08:12.637Z,0.50
2019-05-09T03:10:42.299Z,0.67
2019-05-09T03:13:12.052Z,2.10
2019-05-09T03:15:42.387Z,0.70
2019-05-09T03:18:12.166Z,0.50
2019-05-09T03:21:08.985Z,0.53
2019-05-09T03:23:39.050Z,0.57
2019-05-09T03:26:10.546Z,0.70
2019-05-09T03:29:09.000Z,0.73
2019-05-09T03:31:39.736Z,0.70
2019-05-09T03:34:11.249Z,0.50
2019-05-09T03:36:41.012Z,0.40
2019-05-09T03:39:10.807Z,0.80
2019-05-09T03:41:40.508Z,0.37
2019-05-09T03:44:10.235Z,1.17
2019-05-09T03:47:04.952Z,1.53
2019-05-09T03:49:34.728Z,1.17
2019-05-09T03:52:04.437Z,0.73
2019-05-09T03:54:34.149Z,0.50
2019-05-09T03:57:13.200Z,0.50
2019-05-09T03:59:42.988Z,0.90
2019-05-09T04:02:12.696Z,0.63
2019-05-09T04:04:42.408Z,0.83
2019-05-09T04:07:12.244Z,0.53
2019-05-09T04:09:42.033Z,0.90
2019-05-09T04:12:11.740Z,0.67
2019-05-09T04:14:41.554Z,0.60
2019-05-09T04:17:12.701Z,0.50
2019-05-09T04:19:42.412Z,0.60
2019-05-09T04:22:12.236Z,0.60
2019-05-09T04:24:42.142Z,0.53
2019-05-09T04:27:17.784Z,0.73
2019-05-09T04:29:48.383Z,1.33
2019-05-09T04:32:18.368Z,0.80
2019-05-09T04:34:48.316Z,0.87
2019-05-09T04:37:18.217Z,0.40
2019-05-09T04:39:47.892Z,2.17
2019-05-09T04:42:18.539Z,3.17
2019-05-09T04:44:57.310Z,4.43
2019-05-09T04:47:27.678Z,3.17
2019-05-09T04:49:58.384Z,5.47
2019-05-09T04:52:28.227Z,4.20
2019-05-09T04:54:58.028Z,5.40
2019-05-09T04:57:27.934Z,12.47
2019-05-09T04:59:57.775Z,4.93
2019-05-09T05:02:41.758Z,7.00
2019-05-09T05:05:11.668Z,5.83
2019-05-09T05:07:41.557Z,2.43
2019-05-09T05:10:11.369Z,4.27
2019-05-09T05:12:41.145Z,1.37
2019-05-09T05:15:10.916Z,2.50
2019-05-09T05:17:40.726Z,3.50
2019-05-09T05:20:14.111Z,2.93
2019-05-09T05:22:55.193Z,3.20
2019-05-09T05:25:25.060Z,20.93
2019-05-09T05:27:54.968Z,30.83
2019-05-09T05:30:24.759Z,40.57
2019-05-09T05:33:08.136Z,41.47
2019-05-09T05:35:49.230Z,56.07
2019-05-09T05:38:19.690Z,48.20
2019-05-09T05:40:49.872Z,48.97
2019-05-09T05:43:20.103Z,44.30
2019-05-09T05:46:08.749Z,45.20
2019-05-09T05:48:39.751Z,46.17
2019-05-09T05:51:09.588Z,45.57
2019-05-09T05:53:39.415Z,39.43
2019-05-09T05:56:09.196Z,44.80
2019-05-09T05:58:39.169Z,41.40
2019-05-09T06:01:08.927Z,39.53
2019-05-09T06:03:38.810Z,36.73
2019-05-09T06:06:08.951Z,36.17
2019-05-09T06:08:38.800Z,33.50
2019-05-09T06:11:12.105Z,30.03
2019-05-09T06:13:53.302Z,35.60
2019-05-09T06:16:11.705Z,27.90
2019-05-09T06:18:41.503Z,28.10
2019-05-09T06:21:11.476Z,25.80
2019-05-09T06:23:41.474Z,25.63
2019-05-09T06:26:11.261Z,25.53
2019-05-09T06:28:41.165Z,22.17
2019-05-09T06:31:11.030Z,27.93
2019-05-09T06:33:45.948Z,21.50
2019-05-09T06:36:13.915Z,27.17
2019-05-09T06:38:43.771Z,19.17
2019-05-09T06:41:13.468Z,21.63
2019-05-09T06:43:45.109Z,22.50
2019-05-09T06:46:38.675Z,22.37
2019-05-09T06:49:24.233Z,21.47
2019-05-09T06:51:47.617Z,19.33
2019-05-09T06:54:17.510Z,14.97
2019-05-09T06:56:47.647Z,19.77
2019-05-09T06:59:19.094Z,14.67
2019-05-09T07:01:53.037Z,16.80
2019-05-09T07:04:27.796Z,16.33
2019-05-09T07:07:07.786Z,17.10
2019-05-09T07:10:04.050Z,12.30
2019-05-09T07:12:34.040Z,14.10
2019-05-09T07:15:03.865Z,14.00
2019-05-09T07:17:33.670Z,13.47
2019-05-09T07:20:03.478Z,13.53
2019-05-09T07:22:54.247Z,10.37
2019-05-09T07:25:40.507Z,12.30
2019-05-09T07:28:10.516Z,10.80
2019-05-09T07:30:48.071Z,12.43
2019-05-09T07:33:29.112Z,9.37
2019-05-09T07:35:59.184Z,11.20
2019-05-09T07:38:30.201Z,11.03
2019-05-09T07:41:00.719Z,10.73
2019-05-09T07:43:30.668Z,11.27
2019-05-09T07:46:28.970Z,11.43
2019-05-09T07:48:59.656Z,9.53
2019-05-09T07:51:29.468Z,10.13
2019-05-09T07:53:59.274Z,11.43
2019-05-09T07:56:28.999Z,8.03
2019-05-09T07:58:58.934Z,9.37
2019-05-09T08:01:28.745Z,8.90
2019-05-09T08:03:59.188Z,6.67
2019-05-09T08:06:29.907Z,8.00
2019-05-09T08:08:59.829Z,7.57
2019-05-09T08:11:32.298Z,10.20
2019-05-09T08:14:01.336Z,8.07
2019-05-09T08:16:31.288Z,8.40
2019-05-09T08:19:01.004Z,8.00
2019-05-09T08:21:30.819Z,7.53
2019-05-09T08:24:00.503Z,7.77
2019-05-09T08:26:30.607Z,7.73
2019-05-09T08:29:00.796Z,8.67
2019-05-09T08:31:30.487Z,7.27
2019-05-09T08:34:00.269Z,6.40
2019-05-09T08:36:30.128Z,6.30
2019-05-09T08:39:00.045Z,6.73
2019-05-09T08:41:29.806Z,6.60
2019-05-09T08:43:59.643Z,8.33
2019-05-09T08:46:29.975Z,8.43
2019-05-09T08:49:21.540Z,7.20
2019-05-09T08:52:14.915Z,7.53
2019-05-09T08:54:44.548Z,6.27
2019-05-09T08:57:14.594Z,7.10
2019-05-09T08:59:49.706Z,5.43
2019-05-09T09:02:21.879Z,7.07
2019-05-09T09:04:49.211Z,5.30
2019-05-09T09:07:19.270Z,4.53
2019-05-09T09:09:48.979Z,4.10
2019-05-09T09:12:27.264Z,7.97
2019-05-09T09:14:50.358Z,6.63
2019-05-09T09:17:20.532Z,7.30
2019-05-09T09:19:50.477Z,5.73
2019-05-09T09:22:20.332Z,6.13
2019-05-09T09:24:50.206Z,4.33
2019-05-09T09:27:20.068Z,5.43
2019-05-09T09:29:49.973Z,4.43
2019-05-09T09:32:19.677Z,4.23
2019-05-09T09:34:49.386Z,3.87
2019-05-09T09:37:19.224Z,4.37
2019-05-09T09:39:49.110Z,3.63
2019-05-09T09:42:20.242Z,4.63
2019-05-09T09:44:50.035Z,3.43
2019-05-09T09:47:23.260Z,5.07
2019-05-09T09:49:51.580Z,4.40
2019-05-09T09:52:21.313Z,4.50
2019-05-09T09:54:51.079Z,3.93
2019-05-09T09:57:20.883Z,3.17
2019-05-09T09:59:58.348Z,3.70
2019-05-09T10:02:34.295Z,4.43
2019-05-09T10:05:04.099Z,5.10
2019-05-09T10:07:33.942Z,4.57
2019-05-09T10:10:03.619Z,3.70
2019-05-09T10:12:33.482Z,4.30
2019-05-09T10:15:18.941Z,5.37
2019-05-09T10:18:13.356Z,3.23
2019-05-09T10:20:48.497Z,6.07
2019-05-09T10:23:21.436Z,5.20
2019-05-09T10:25:50.031Z,8.70
2019-05-09T10:28:21.321Z,5.70
2019-05-09T10:30:51.404Z,5.30
2019-05-09T10:33:21.157Z,4.60
2019-05-09T10:35:50.994Z,2.93
2019-05-09T10:38:20.786Z,6.23
2019-05-09T10:40:53.291Z,4.10
2019-05-09T10:43:52.780Z,4.40
2019-05-09T10:46:52.414Z,3.80
2019-05-09T10:49:15.724Z,7.20
2019-05-09T10:51:45.503Z,3.67
2019-05-09T10:54:15.355Z,3.87
2019-05-09T10:56:45.314Z,2.93
2019-05-09T10:59:15.192Z,4.17
2019-05-09T11:01:45.122Z,3.63
2019-05-09T11:04:15.025Z,5.57
2019-05-09T11:06:44.808Z,3.70
2019-05-09T11:09:14.557Z,4.63
2019-05-09T11:11:44.377Z,4.03
2019-05-09T11:14:29.632Z,3.53
2019-05-09T11:16:49.120Z,2.83
2019-05-09T11:19:18.399Z,2.87
2019-05-09T11:21:48.274Z,3.03
2019-05-09T11:24:18.763Z,3.20
2019-05-09T11:26:48.839Z,4.70
2019-05-09T11:29:18.898Z,2.37
2019-05-09T11:31:48.877Z,3.43
2019-05-09T11:34:18.979Z,3.07
2019-05-09T11:36:49.834Z,3.80
2019-05-09T11:39:35.242Z,3.87
2019-05-09T11:41:51.143Z,5.20
2019-05-09T11:44:20.899Z,5.03
2019-05-09T11:46:50.835Z,3.17
2019-05-09T11:49:20.631Z,3.53
2019-05-09T11:51:50.330Z,4.23
2019-05-09T11:54:20.035Z,4.83
2019-05-09T11:56:49.779Z,5.37
2019-05-09T11:59:19.499Z,4.73
2019-05-09T12:01:49.173Z,2.70
2019-05-09T12:04:19.000Z,3.10
2019-05-09T12:06:49.463Z,3.60
2019-05-09T12:09:19.239Z,2.97
2019-05-09T12:11:48.942Z,2.53
2019-05-09T12:14:18.712Z,2.37
2019-05-09T12:16:49.416Z,2.83
2019-05-09T12:19:19.089Z,1.83
2019-05-09T12:21:48.787Z,3.27
2019-05-09T12:24:18.696Z,5.43
2019-05-09T12:26:48.449Z,4.93
2019-05-09T12:29:19.639Z,3.37
2019-05-09T12:31:50.568Z,3.30
2019-05-09T12:34:20.265Z,3.67
2019-05-09T12:36:50.107Z,5.77
2019-05-09T12:39:20.066Z,5.93
2019-05-09T12:41:49.762Z,7.87
2019-05-09T12:44:19.571Z,6.27
2019-05-09T12:46:49.339Z,2.40
2019-05-09T12:49:19.288Z,4.27
2019-05-09T12:51:49.166Z,4.13
2019-05-09T12:54:19.514Z,6.30
2019-05-09T12:56:49.272Z,3.70
2019-05-09T12:59:19.061Z,3.63
2019-05-09T13:01:49.422Z,1.40
2019-05-09T13:04:19.408Z,5.57
2019-05-09T13:06:49.193Z,4.27
2019-05-09T13:09:18.926Z,3.80
2019-05-09T13:11:48.628Z,2.60
2019-05-09T13:14:19.317Z,4.63
2019-05-09T13:16:58.614Z,2.73
2019-05-09T13:19:34.253Z,2.83
2019-05-09T13:22:03.948Z,2.90
2019-05-09T13:24:33.961Z,3.43
2019-05-09T13:27:04.338Z,4.87
2019-05-09T13:29:34.104Z,3.80
2019-05-09T13:32:03.811Z,3.43
2019-05-09T13:34:33.543Z,3.87
2019-05-09T13:37:03.279Z,1.77
2019-05-09T13:39:33.033Z,3.07
2019-05-09T13:42:02.755Z,2.57
2019-05-09T13:44:32.465Z,3.27
2019-05-09T13:47:02.343Z,3.73
2019-05-09T13:49:32.092Z,2.13
2019-05-09T13:52:04.817Z,2.17
2019-05-09T13:54:38.250Z,4.30
2019-05-09T13:57:08.760Z,2.33
2019-05-09T13:59:38.830Z,2.97
2019-05-09T14:02:08.520Z,1.73
2019-05-09T14:04:39.566Z,1.60
2019-05-09T14:07:09.669Z,1.90
2019-05-09T14:09:39.448Z,1.03
2019-05-09T14:12:09.476Z,1.47
2019-05-09T14:14:40.456Z,2.27
2019-05-09T14:17:13.783Z,2.80
2019-05-09T14:19:46.358Z,2.70
2019-05-09T14:22:13.064Z,1.87
2019-05-09T14:24:42.705Z,1.10
2019-05-09T14:27:12.493Z,1.37
2019-05-09T14:29:42.653Z,2.77
2019-05-09T14:32:12.316Z,1.40
2019-05-09T14:34:42.726Z,1.53
2019-05-09T14:37:12.601Z,2.67
2019-05-09T14:39:54.879Z,1.23
2019-05-09T14:42:13.780Z,2.90
2019-05-09T14:44:43.419Z,2.33
2019-05-09T14:47:13.166Z,3.93
2019-05-09T14:49:44.595Z,4.30
2019-05-09T14:52:14.465Z,3.60
2019-05-09T14:54:44.390Z,3.00
2019-05-09T14:57:14.254Z,3.33
2019-05-09T14:59:44.111Z,1.73
2019-05-09T15:02:13.944Z,4.97
2019-05-09T15:04:43.806Z,2.97
2019-05-09T15:07:13.634Z,2.00
2019-05-09T15:09:43.447Z,2.47
2019-05-09T15:12:13.632Z,2.13
2019-05-09T15:14:43.756Z,1.03
2019-05-09T15:17:14.149Z,1.23
2019-05-09T15:19:56.398Z,2.03
2019-05-09T15:22:15.574Z,4.70
2019-05-09T15:24:47.643Z,1.83
2019-05-09T15:27:17.723Z,0.90
2019-05-09T15:29:48.656Z,1.57
2019-05-09T15:32:18.687Z,1.47
2019-05-09T15:34:48.672Z,0.83
2019-05-09T15:37:18.829Z,2.50
2019-05-09T15:39:48.960Z,2.00
2019-05-09T15:42:18.748Z,1.33
2019-05-09T15:44:48.572Z,1.17
2019-05-09T15:47:22.838Z,0.80
2019-05-09T15:49:52.591Z,1.63
2019-05-09T15:52:22.455Z,1.97
2019-05-09T15:54:53.447Z,2.27
2019-05-09T15:57:23.204Z,3.67
2019-05-09T15:59:52.963Z,1.13
2019-05-09T16:02:22.830Z,0.80
2019-05-09T16:04:52.615Z,1.33
2019-05-09T16:07:22.460Z,3.23
2019-05-09T16:09:52.350Z,1.07
2019-05-09T16:12:22.180Z,1.97
2019-05-09T16:14:51.964Z,2.80
2019-05-09T16:17:21.757Z,2.07
2019-05-09T16:19:51.627Z,3.07
2019-05-09T16:22:21.347Z,1.57
2019-05-09T16:24:51.145Z,3.33
2019-05-09T16:27:21.156Z,2.63
2019-05-09T16:29:51.051Z,2.27
2019-05-09T16:32:20.821Z,2.47
2019-05-09T16:34:50.799Z,0.70
2019-05-09T16:37:20.515Z,0.97
2019-05-09T16:39:50.472Z,3.53
2019-05-09T16:42:21.113Z,1.00
2019-05-09T16:44:50.974Z,1.23
2019-05-09T16:47:22.261Z,4.83
2019-05-09T16:49:52.206Z,0.80
2019-05-09T16:52:22.036Z,0.63
2019-05-09T16:54:54.302Z,1.57
2019-05-09T16:57:25.051Z,4.23
2019-05-09T16:59:54.862Z,1.47
2019-05-09T17:02:25.230Z,1.60
2019-05-09T17:04:57.568Z,1.57
2019-05-09T17:07:27.790Z,2.10
2019-05-09T17:09:58.299Z,2.60
2019-05-09T17:12:28.407Z,3.90
2019-05-09T17:14:59.767Z,4.57
2019-05-09T17:17:30.150Z,3.13
2019-05-09T17:20:00.204Z,2.50
2019-05-09T17:22:47.525Z,4.23
2019-05-09T17:25:18.701Z,4.73
2019-05-09T17:27:48.708Z,6.70
2019-05-09T17:30:18.786Z,3.20
2019-05-09T17:32:48.592Z,2.17
2019-05-09T17:35:18.606Z,2.53
2019-05-09T17:37:54.112Z,7.33
2019-05-09T17:40:23.911Z,5.77
2019-05-09T17:43:12.891Z,7.87
2019-05-09T17:45:44.130Z,10.53
2019-05-09T17:48:13.913Z,8.53
2019-05-09T17:50:43.767Z,11.17
2019-05-09T17:53:18.032Z,6.60
2019-05-09T17:55:47.903Z,7.03
2019-05-09T17:58:27.279Z,6.20
2019-05-09T18:00:49.453Z,12.00
2019-05-09T18:03:19.171Z,10.57
2019-05-09T18:05:48.960Z,6.10
2019-05-09T18:08:19.061Z,6.23
2019-05-09T18:10:49.332Z,4.00
2019-05-09T18:13:23.856Z,2.63
2019-05-09T18:15:50.515Z,4.07
2019-05-09T18:18:20.352Z,5.83
2019-05-09T18:20:50.209Z,3.83
2019-05-09T18:23:20.076Z,3.63
2019-05-09T18:25:50.765Z,5.63
2019-05-09T18:28:20.785Z,4.43
2019-05-09T18:30:53.974Z,2.53
2019-05-09T18:33:38.004Z,4.83
2019-05-09T18:36:07.937Z,6.13
2019-05-09T18:38:38.756Z,5.43
2019-05-09T18:41:10.444Z,6.23
2019-05-09T18:43:41.000Z,4.20
2019-05-09T18:46:10.974Z,3.50
2019-05-09T18:48:41.223Z,3.53
2019-05-09T18:51:11.002Z,2.10
2019-05-09T18:53:40.797Z,4.70
2019-05-09T18:56:10.609Z,5.27
2019-05-09T18:58:59.529Z,4.37
2019-05-09T19:01:29.521Z,4.50
2019-05-09T19:03:59.553Z,4.27
2019-05-09T19:06:29.300Z,4.00
2019-05-09T19:08:59.531Z,5.10
2019-05-09T19:11:29.368Z,2.60
2019-05-09T19:13:59.790Z,4.37
2019-05-09T19:16:38.448Z,4.50
2019-05-09T19:19:18.160Z,3.67
2019-05-09T19:21:51.713Z,1.23
2019-05-09T19:24:32.024Z,3.50
2019-05-09T19:27:02.101Z,3.60
2019-05-09T19:29:34.683Z,2.60
2019-05-09T19:32:36.469Z,2.70
2019-05-09T19:35:04.157Z,3.93
2019-05-09T19:46:24.630Z,2.40
2019-05-09T19:49:10.448Z,1.00
2019-05-09T19:51:52.571Z,1.40
2019-05-09T19:55:26.741Z,5.73
2019-05-09T19:57:56.400Z,2.43
2019-05-09T20:00:27.205Z,1.50
2019-05-09T20:02:57.018Z,2.70
2019-05-09T20:05:27.328Z,3.80
2019-05-09T20:07:57.035Z,2.40
2019-05-09T20:10:44.662Z,1.97
2019-05-09T20:13:37.077Z,2.37
2019-05-09T20:16:06.754Z,3.63
2019-05-09T20:18:36.440Z,3.97
2019-05-09T20:21:06.210Z,3.13
2019-05-09T20:23:35.893Z,3.20
2019-05-09T20:26:05.671Z,2.73
2019-05-09T20:28:35.404Z,1.40
2019-05-09T20:31:05.190Z,3.23
2019-05-09T20:33:34.864Z,4.27
2019-05-09T20:36:04.567Z,3.53
2019-05-09T20:38:34.531Z,4.10
2019-05-09T20:41:04.468Z,4.47
2019-05-09T20:43:53.428Z,2.90
2019-05-09T20:46:23.347Z,3.57
2019-05-09T20:48:53.210Z,4.03
2019-05-09T20:51:23.178Z,2.27
2019-05-09T20:53:52.995Z,2.63
2019-05-09T20:56:22.908Z,2.30
2019-05-09T20:58:52.893Z,2.77
2019-05-09T21:01:22.847Z,1.27
2019-05-09T21:04:00.239Z,1.17
2019-05-09T21:06:25.124Z,0.90
2019-05-09T21:08:55.141Z,2.30
2019-05-09T21:11:25.056Z,3.33
2019-05-09T21:13:54.981Z,1.73
2019-05-09T21:16:24.892Z,1.03
2019-05-09T21:18:54.844Z,0.80
2019-05-09T21:21:24.816Z,2.77
2019-05-09T21:23:54.730Z,1.00
2019-05-09T21:26:24.577Z,1.43
2019-05-09T21:28:54.560Z,2.13
2019-05-09T21:31:44.392Z,2.50
2019-05-09T21:34:14.363Z,0.80
2019-05-09T21:36:44.111Z,2.80
2019-05-09T21:39:13.912Z,1.03
2019-05-09T21:41:43.621Z,1.03
2019-05-09T21:44:13.296Z,0.83
2019-05-09T21:46:43.046Z,2.57
2019-05-09T21:49:12.716Z,1.13
2019-05-09T21:51:42.688Z,0.97
2019-05-09T21:54:12.444Z,1.97
2019-05-09T21:56:42.185Z,1.07
2019-05-09T21:59:11.862Z,1.00
2019-05-09T22:01:41.677Z,2.20
2019-05-09T22:04:11.540Z,0.90
2019-05-09T22:06:41.953Z,2.03
2019-05-09T22:09:11.865Z,1.80
2019-05-09T22:11:41.577Z,1.47
2019-05-09T22:14:11.391Z,1.33
2019-05-09T22:16:41.213Z,2.10
2019-05-09T22:19:11.025Z,1.60
2019-05-09T22:21:40.728Z,0.93
2019-05-09T22:24:10.433Z,1.30
2019-05-09T22:26:40.156Z,0.90
2019-05-09T22:29:09.948Z,1.13
2019-05-09T22:31:39.768Z,1.03
2019-05-09T22:34:09.687Z,1.53
2019-05-09T22:36:39.386Z,1.03
2019-05-09T22:39:09.104Z,1.73
2019-05-09T22:41:38.844Z,0.80
2019-05-09T22:44:08.636Z,1.00
2019-05-09T22:46:38.553Z,0.70
2019-05-09T22:49:08.350Z,1.43
2019-05-09T22:51:38.062Z,1.67
2019-05-09T22:54:12.896Z,0.97
2019-05-09T22:56:39.134Z,0.77
2019-05-09T22:59:08.826Z,1.37
2019-05-09T23:01:38.503Z,0.60
2019-05-09T23:04:08.251Z,0.83
2019-05-09T23:06:38.207Z,1.27
2019-05-09T23:09:08.277Z,1.27
2019-05-09T23:11:37.992Z,0.63
2019-05-09T23:14:07.701Z,0.60
2019-05-09T23:16:39.709Z,0.90
2019-05-09T23:19:09.373Z,0.60
2019-05-09T23:21:39.188Z,1.03
2019-05-09T23:24:10.714Z,0.47
2019-05-09T23:26:40.452Z,1.80
2019-05-09T23:29:10.169Z,0.50
2019-05-09T23:32:13.839Z,1.47
2019-05-09T23:34:43.541Z,0.57
2019-05-09T23:37:13.436Z,1.10
2019-05-09T23:39:45.319Z,1.20
2019-05-09T23:42:14.979Z,0.60
2019-05-09T23:44:44.775Z,0.87
2019-05-09T23:47:14.704Z,0.57
2019-05-09T23:49:44.616Z,1.60
2019-05-09T23:52:14.315Z,0.80
2019-05-09T23:55:01.444Z,1.27
2019-05-09T23:57:48.785Z,0.60
